createdAt,value
2019-05-17T00:00:22.261Z,7.83
2019-05-17T00:02:49.631Z,7.10
2019-05-17T00:05:17.832Z,7.47
2019-05-17T00:07:47.253Z,6.97
2019-05-17T00:10:17.045Z,7.70
2019-05-17T00:12:47.055Z,7.63
2019-05-17T00:15:16.853Z,6.93
2019-05-17T00:17:43.773Z,6.70
2019-05-17T00:20:11.165Z,7.17
2019-05-17T00:22:38.538Z,6.73
2019-05-17T00:25:07.491Z,7.67
2019-05-17T00:27:36.632Z,8.10
2019-05-17T00:30:06.617Z,6.97
2019-05-17T00:32:33.991Z,7.10
2019-05-17T00:35:01.302Z,6.40
2019-05-17T00:37:28.867Z,6.30
2019-05-17T00:39:56.670Z,7.10
2019-05-17T00:42:26.279Z,7.37
2019-05-17T00:44:53.150Z,6.07
2019-05-17T00:47:20.288Z,5.73
2019-05-17T00:49:47.671Z,5.70
2019-05-17T00:52:16.692Z,6.03
2019-05-17T00:54:44.016Z,6.87
2019-05-17T00:57:11.114Z,5.77
2019-05-17T00:59:38.678Z,6.43
2019-05-17T01:02:06.966Z,6.20
2019-05-17T01:04:34.187Z,6.50
2019-05-17T01:07:01.422Z,5.80
2019-05-17T01:09:28.679Z,5.77
2019-05-17T01:11:56.696Z,6.23
2019-05-17T01:14:23.983Z,7.73
2019-05-17T01:16:51.197Z,6.20
2019-05-17T01:19:18.339Z,6.80
2019-05-17T01:21:47.493Z,7.03
2019-05-17T01:24:17.070Z,7.07
2019-05-17T01:26:43.642Z,6.50
2019-05-17T01:29:11.306Z,6.83
2019-05-17T01:31:38.465Z,6.60
2019-05-17T01:34:07.285Z,6.50
2019-05-17T01:36:36.879Z,7.13
2019-05-17T01:39:16.968Z,7.07
2019-05-17T01:41:34.121Z,6.70
2019-05-17T01:44:01.522Z,7.40
2019-05-17T01:46:29.065Z,7.60
2019-05-17T01:48:57.709Z,8.37
2019-05-17T01:51:26.342Z,7.33
2019-05-17T01:53:53.668Z,7.83
2019-05-17T01:56:20.948Z,7.43
2019-05-17T01:58:48.048Z,7.93
2019-05-17T02:01:16.950Z,8.10
2019-05-17T02:03:44.152Z,9.03
2019-05-17T02:06:11.204Z,10.00
2019-05-17T02:08:38.399Z,8.50
2019-05-17T02:11:06.833Z,8.73
2019-05-17T02:13:34.243Z,8.97
2019-05-17T02:16:01.547Z,10.57
2019-05-17T02:18:28.675Z,8.17
2019-05-17T02:20:57.078Z,8.93
2019-05-17T02:23:26.861Z,10.10
2019-05-17T02:25:54.071Z,9.90
2019-05-17T02:28:21.456Z,9.40
2019-05-17T02:30:48.918Z,8.60
2019-05-17T02:33:16.535Z,10.90
2019-05-17T02:35:45.125Z,10.57
2019-05-17T02:38:13.252Z,9.50
2019-05-17T02:40:43.120Z,10.17
2019-05-17T02:43:13.034Z,10.30
2019-05-17T02:45:43.565Z,10.40
2019-05-17T02:48:13.135Z,9.03
2019-05-17T02:50:43.027Z,8.50
2019-05-17T02:53:08.859Z,10.43
2019-05-17T02:55:36.126Z,8.30
2019-05-17T02:58:03.867Z,8.90
2019-05-17T03:00:34.096Z,8.13
2019-05-17T03:03:03.454Z,9.40
2019-05-17T03:05:33.407Z,8.70
2019-05-17T03:07:58.762Z,8.80
2019-05-17T03:10:29.050Z,8.37
2019-05-17T03:12:54.725Z,9.87
2019-05-17T03:15:23.376Z,8.03
2019-05-17T03:17:53.742Z,8.90
2019-05-17T03:20:23.318Z,7.43
2019-05-17T03:22:52.341Z,6.67
2019-05-17T03:25:18.912Z,7.53
2019-05-17T03:27:46.348Z,7.30
2019-05-17T03:30:18.193Z,7.83
2019-05-17T03:32:47.756Z,7.60
2019-05-17T03:35:16.882Z,5.97
2019-05-17T03:37:43.725Z,6.90
2019-05-17T03:40:24.842Z,8.03
2019-05-17T03:42:42.838Z,8.00
2019-05-17T03:45:13.483Z,9.00
2019-05-17T03:47:39.554Z,7.23
2019-05-17T03:50:07.089Z,7.53
2019-05-17T03:52:35.499Z,6.97
2019-05-17T03:55:03.829Z,7.80
2019-05-17T03:57:32.335Z,7.20
2019-05-17T04:00:03.504Z,7.83
2019-05-17T04:02:32.449Z,7.50
2019-05-17T04:04:58.469Z,7.20
2019-05-17T04:07:25.617Z,7.20
2019-05-17T04:09:55.979Z,7.20
2019-05-17T04:12:23.321Z,8.07
2019-05-17T04:14:53.364Z,7.87
2019-05-17T04:17:22.730Z,7.97
2019-05-17T04:19:49.153Z,8.43
2019-05-17T04:22:16.556Z,8.00
2019-05-17T04:24:43.958Z,7.20
2019-05-17T04:27:13.581Z,8.13
2019-05-17T04:29:42.543Z,7.50
2019-05-17T04:32:12.664Z,8.20
2019-05-17T04:34:38.918Z,7.90
2019-05-17T04:37:06.079Z,7.50
2019-05-17T04:39:33.581Z,7.23
2019-05-17T04:42:03.888Z,7.27
2019-05-17T04:44:32.226Z,8.77
2019-05-17T04:47:03.428Z,7.73
2019-05-17T04:49:33.054Z,6.33
2019-05-17T04:52:03.338Z,8.07
2019-05-17T04:54:29.266Z,7.90
2019-05-17T04:56:56.223Z,8.47
2019-05-17T04:59:24.278Z,8.53
2019-05-17T05:01:53.750Z,7.60
2019-05-17T05:04:22.627Z,7.67
2019-05-17T05:06:52.482Z,8.57
2019-05-17T05:09:22.912Z,8.37
2019-05-17T05:11:57.098Z,7.60
2019-05-17T05:14:18.356Z,6.53
2019-05-17T05:16:45.376Z,7.30
2019-05-17T05:19:13.166Z,6.70
2019-05-17T05:21:42.621Z,7.43
2019-05-17T05:24:11.567Z,8.67
2019-05-17T05:26:39.144Z,7.73
2019-05-17T05:29:06.419Z,7.90
2019-05-17T05:31:33.550Z,7.50
2019-05-17T05:34:01.859Z,8.67
2019-05-17T05:36:29.300Z,8.10
2019-05-17T05:38:56.368Z,7.07
2019-05-17T05:41:24.015Z,7.47
2019-05-17T05:43:52.603Z,8.60
2019-05-17T05:46:23.557Z,8.30
2019-05-17T05:48:52.191Z,8.90
2019-05-17T05:51:21.622Z,8.23
2019-05-17T05:53:52.042Z,9.20
2019-05-17T05:56:21.828Z,8.83
2019-05-17T05:58:48.649Z,7.90
2019-05-17T06:01:16.168Z,9.10
2019-05-17T06:03:43.060Z,8.50
2019-05-17T06:06:12.180Z,8.70
2019-05-17T06:08:41.371Z,9.07
2019-05-17T06:11:12.325Z,8.73
2019-05-17T06:13:41.740Z,9.10
2019-05-17T06:16:08.213Z,9.57
2019-05-17T06:18:35.259Z,10.60
2019-05-17T06:21:03.219Z,9.67
2019-05-17T06:23:31.591Z,9.43
2019-05-17T06:25:58.939Z,10.53
2019-05-17T06:28:25.838Z,9.97
2019-05-17T06:30:52.804Z,9.60
2019-05-17T06:33:28.096Z,10.30
2019-05-17T06:35:49.107Z,10.40
2019-05-17T06:38:16.194Z,9.60
2019-05-17T06:40:43.335Z,10.27
2019-05-17T06:43:12.942Z,10.20
2019-05-17T06:45:41.871Z,10.30
2019-05-17T06:48:11.462Z,11.10
2019-05-17T06:50:38.609Z,14.20
2019-05-17T06:53:05.582Z,13.53
2019-05-17T06:55:32.460Z,11.87
2019-05-17T06:58:01.706Z,10.93
2019-05-17T07:00:29.929Z,11.80
2019-05-17T07:02:57.264Z,13.13
2019-05-17T07:05:29.378Z,11.53
2019-05-17T07:08:00.326Z,11.77
2019-05-17T07:10:30.476Z,10.83
2019-05-17T07:13:01.203Z,12.67
2019-05-17T07:15:40.062Z,12.00
2019-05-17T07:17:56.102Z,12.77
2019-05-17T07:20:23.433Z,11.43
2019-05-17T07:22:50.817Z,11.60
2019-05-17T07:25:19.800Z,14.10
2019-05-17T07:27:47.051Z,12.57
2019-05-17T07:30:14.637Z,12.33
2019-05-17T07:32:41.739Z,13.30
2019-05-17T07:35:10.821Z,12.03
2019-05-17T07:37:39.734Z,13.27
2019-05-17T07:40:10.453Z,12.10
2019-05-17T07:42:36.662Z,13.97
2019-05-17T07:45:04.701Z,12.80
2019-05-17T07:47:31.814Z,12.90
2019-05-17T07:50:01.047Z,10.43
2019-05-17T07:52:29.986Z,12.87
2019-05-17T07:55:02.046Z,13.27
2019-05-17T07:57:26.879Z,11.67
2019-05-17T07:59:53.759Z,12.63
2019-05-17T08:02:20.964Z,11.80
2019-05-17T08:04:49.926Z,12.27
2019-05-17T08:07:16.876Z,11.60
2019-05-17T08:09:44.646Z,11.87
2019-05-17T08:12:12.368Z,13.77
2019-05-17T08:14:40.130Z,14.77
2019-05-17T08:17:07.198Z,14.40
2019-05-17T08:19:34.692Z,10.70
2019-05-17T08:22:01.583Z,12.47
2019-05-17T08:24:30.305Z,11.57
2019-05-17T08:26:59.928Z,13.00
2019-05-17T08:29:29.305Z,13.90
2019-05-17T08:31:56.200Z,10.90
2019-05-17T08:34:23.087Z,12.90
2019-05-17T08:36:53.466Z,13.30
2019-05-17T08:39:20.746Z,11.80
2019-05-17T08:41:49.746Z,13.33
2019-05-17T08:44:19.139Z,12.13
2019-05-17T08:46:46.513Z,13.03
2019-05-17T08:49:13.860Z,10.43
2019-05-17T08:51:41.162Z,11.47
2019-05-17T08:54:10.260Z,11.93
2019-05-17T08:56:40.015Z,12.37
2019-05-17T08:59:06.624Z,9.90
2019-05-17T09:01:33.678Z,10.90
2019-05-17T09:04:00.757Z,11.17
2019-05-17T09:06:29.304Z,12.10
2019-05-17T09:08:56.743Z,11.30
2019-05-17T09:11:24.123Z,11.67
2019-05-17T09:13:57.890Z,11.97
2019-05-17T09:16:20.241Z,11.70
2019-05-17T09:18:50.046Z,11.73
2019-05-17T09:21:17.065Z,11.00
2019-05-17T09:23:44.258Z,10.80
2019-05-17T09:26:11.428Z,11.93
2019-05-17T09:28:39.439Z,11.80
2019-05-17T09:31:06.969Z,11.10
2019-05-17T09:33:34.208Z,10.63
2019-05-17T09:36:01.427Z,10.33
2019-05-17T09:38:29.559Z,12.90
2019-05-17T09:40:56.889Z,10.40
2019-05-17T09:43:24.461Z,11.97
2019-05-17T09:45:51.635Z,9.90
2019-05-17T09:48:19.645Z,10.87
2019-05-17T09:50:46.934Z,10.70
2019-05-17T09:53:14.131Z,11.03
2019-05-17T09:55:41.152Z,9.50
2019-05-17T09:58:09.938Z,10.07
2019-05-17T10:00:37.463Z,10.70
2019-05-17T10:03:04.788Z,10.83
2019-05-17T10:05:31.738Z,8.93
2019-05-17T10:08:00.055Z,8.70
2019-05-17T10:10:27.697Z,8.10
2019-05-17T10:12:55.383Z,8.53
2019-05-17T10:15:22.605Z,8.10
2019-05-17T10:17:49.985Z,7.43
2019-05-17T10:20:17.211Z,7.27
2019-05-17T10:22:44.541Z,7.90
2019-05-17T10:25:12.107Z,7.90
2019-05-17T10:27:40.695Z,9.60
2019-05-17T10:30:10.379Z,8.80
2019-05-17T10:32:40.467Z,7.83
2019-05-17T10:35:06.899Z,8.40
2019-05-17T10:37:34.079Z,8.90
2019-05-17T10:40:02.422Z,8.10
2019-05-17T10:42:30.717Z,8.27
2019-05-17T10:44:59.958Z,7.50
2019-05-17T10:47:29.933Z,7.53
2019-05-17T10:49:56.298Z,7.80
2019-05-17T10:52:23.508Z,7.30
2019-05-17T10:54:50.896Z,7.20
2019-05-17T10:57:19.427Z,7.37
2019-05-17T10:59:46.893Z,7.63
2019-05-17T11:02:13.880Z,7.17
2019-05-17T11:04:41.017Z,6.70
2019-05-17T11:07:10.282Z,6.80
2019-05-17T11:09:39.848Z,6.27
2019-05-17T11:12:06.463Z,6.93
2019-05-17T11:14:34.115Z,7.27
2019-05-17T11:17:01.423Z,6.10
2019-05-17T11:19:28.692Z,6.80
2019-05-17T11:21:55.753Z,5.60
2019-05-17T11:24:23.135Z,4.90
2019-05-17T11:26:50.501Z,5.10
2019-05-17T11:29:17.924Z,6.30
2019-05-17T11:31:44.823Z,5.67
2019-05-17T11:34:12.026Z,5.60
2019-05-17T11:36:39.200Z,7.00
2019-05-17T11:39:06.161Z,6.50
2019-05-17T11:41:33.538Z,6.13
2019-05-17T11:44:00.460Z,5.00
2019-05-17T11:46:35.912Z,4.93
2019-05-17T11:48:57.455Z,6.53
2019-05-17T11:51:28.099Z,5.50
2019-05-17T11:53:55.134Z,4.67
2019-05-17T11:56:22.395Z,6.07
2019-05-17T11:58:49.233Z,6.00
2019-05-17T12:01:16.070Z,6.07
2019-05-17T12:03:43.530Z,5.50
2019-05-17T12:06:10.711Z,5.13
2019-05-17T12:08:37.877Z,4.50
2019-05-17T12:11:05.215Z,5.83
2019-05-17T12:13:32.618Z,4.47
2019-05-17T12:15:59.836Z,4.30
2019-05-17T12:18:26.789Z,5.07
2019-05-17T12:20:53.940Z,5.40
2019-05-17T12:23:21.059Z,5.70
2019-05-17T12:25:48.512Z,6.03
2019-05-17T12:28:15.818Z,5.30
2019-05-17T12:30:42.987Z,5.13
2019-05-17T12:33:09.837Z,5.27
2019-05-17T12:35:37.086Z,4.63
2019-05-17T12:38:03.957Z,4.87
2019-05-17T12:40:31.166Z,4.60
2019-05-17T12:42:58.300Z,6.50
2019-05-17T12:45:25.433Z,6.10
2019-05-17T12:47:52.737Z,5.30
2019-05-17T12:50:20.031Z,6.03
2019-05-17T12:52:47.195Z,5.97
2019-05-17T12:55:14.581Z,5.40
2019-05-17T12:57:41.954Z,5.40
2019-05-17T13:00:09.716Z,5.40
2019-05-17T13:02:37.034Z,4.90
2019-05-17T13:05:04.469Z,4.83
2019-05-17T13:07:31.883Z,4.87
2019-05-17T13:09:59.303Z,4.90
2019-05-17T13:12:26.619Z,4.97
2019-05-17T13:14:53.848Z,6.27
2019-05-17T13:17:20.680Z,6.30
2019-05-17T13:19:47.663Z,6.33
2019-05-17T13:22:14.778Z,5.97
2019-05-17T13:24:42.182Z,5.70
2019-05-17T13:27:09.480Z,5.23
2019-05-17T13:29:36.898Z,5.00
2019-05-17T13:32:04.383Z,6.00
2019-05-17T13:34:31.592Z,4.93
2019-05-17T13:36:58.687Z,5.40
2019-05-17T13:39:25.953Z,6.70
2019-05-17T13:41:53.659Z,6.50
2019-05-17T13:44:20.627Z,5.10
2019-05-17T13:46:48.108Z,6.07
2019-05-17T13:49:18.358Z,5.40
2019-05-17T13:51:45.433Z,5.37
2019-05-17T13:54:12.826Z,5.97
2019-05-17T13:56:39.834Z,6.27
2019-05-17T13:59:06.770Z,6.03
2019-05-17T14:01:34.087Z,6.20
2019-05-17T14:04:01.282Z,5.83
2019-05-17T14:06:28.704Z,7.97
2019-05-17T14:08:55.738Z,6.43
2019-05-17T14:11:22.878Z,6.80
2019-05-17T14:13:53.136Z,6.40
2019-05-17T14:16:20.392Z,5.70
2019-05-17T14:18:48.563Z,5.70
2019-05-17T14:21:15.868Z,6.80
2019-05-17T14:23:43.301Z,6.60
2019-05-17T14:26:10.986Z,6.57
2019-05-17T14:28:39.566Z,5.70
2019-05-17T14:31:06.401Z,6.23
2019-05-17T14:33:33.958Z,5.20
2019-05-17T14:36:01.298Z,6.90
2019-05-17T14:38:28.668Z,6.03
2019-05-17T14:41:11.734Z,6.30
2019-05-17T14:43:25.934Z,5.53
2019-05-17T14:45:53.637Z,4.77
2019-05-17T14:48:20.576Z,6.57
2019-05-17T14:50:48.188Z,5.83
2019-05-17T14:53:15.232Z,5.97
2019-05-17T14:55:42.355Z,6.00
2019-05-17T14:58:09.788Z,6.80
2019-05-17T15:00:37.128Z,6.10
2019-05-17T15:03:07.448Z,6.73
2019-05-17T15:05:33.620Z,5.17
2019-05-17T15:08:01.159Z,5.40
2019-05-17T15:10:28.858Z,4.93
2019-05-17T15:12:56.242Z,4.90
2019-05-17T15:15:27.145Z,5.93
2019-05-17T15:17:52.611Z,5.80
2019-05-17T15:20:19.848Z,6.20
2019-05-17T15:22:47.084Z,6.50
2019-05-17T15:25:14.422Z,5.10
2019-05-17T15:27:41.554Z,5.10
2019-05-17T15:30:08.991Z,5.90
2019-05-17T15:32:36.076Z,5.33
2019-05-17T15:35:03.220Z,4.73
2019-05-17T15:37:30.446Z,5.20
2019-05-17T15:39:57.504Z,5.27
2019-05-17T15:42:24.876Z,5.60
2019-05-17T15:44:52.250Z,4.87
2019-05-17T15:47:19.573Z,5.33
2019-05-17T15:49:46.989Z,5.40
2019-05-17T15:52:14.191Z,4.63
2019-05-17T15:54:41.432Z,6.00
2019-05-17T15:57:08.607Z,5.13
2019-05-17T15:59:35.973Z,4.70
2019-05-17T16:02:03.115Z,5.17
2019-05-17T16:04:30.654Z,4.97
2019-05-17T16:06:57.880Z,5.87
2019-05-17T16:09:25.058Z,5.43
2019-05-17T16:11:55.739Z,6.13
2019-05-17T16:14:23.111Z,4.37
2019-05-17T16:16:50.262Z,4.40
2019-05-17T16:19:17.666Z,4.90
2019-05-17T16:21:45.048Z,3.97
2019-05-17T16:24:12.217Z,4.63
2019-05-17T16:26:39.663Z,4.80
2019-05-17T16:29:06.798Z,3.33
2019-05-17T16:31:34.182Z,3.77
2019-05-17T16:34:01.752Z,3.90
2019-05-17T16:36:28.994Z,4.30
2019-05-17T16:38:56.281Z,4.40
2019-05-17T16:41:23.535Z,3.97
2019-05-17T16:43:51.014Z,3.90
2019-05-17T16:46:21.978Z,4.27
2019-05-17T16:48:49.501Z,4.50
2019-05-17T16:51:16.502Z,4.47
2019-05-17T16:53:43.764Z,4.70
2019-05-17T16:56:11.706Z,4.37
2019-05-17T16:58:38.959Z,4.53
2019-05-17T17:01:06.147Z,4.20
2019-05-17T17:03:43.886Z,4.90
2019-05-17T17:06:02.792Z,3.90
2019-05-17T17:08:30.038Z,5.00
2019-05-17T17:10:57.690Z,5.10
2019-05-17T17:13:32.671Z,3.83
2019-05-17T17:15:54.181Z,3.50
2019-05-17T17:18:21.309Z,4.40
2019-05-17T17:20:48.619Z,4.03
2019-05-17T17:23:15.877Z,4.37
2019-05-17T17:25:43.607Z,3.50
2019-05-17T17:28:10.684Z,4.70
2019-05-17T17:30:38.279Z,3.40
2019-05-17T17:33:05.390Z,4.00
2019-05-17T17:35:32.727Z,3.73
2019-05-17T17:38:00.014Z,3.10
2019-05-17T17:40:27.627Z,3.47
2019-05-17T17:42:55.254Z,4.00
2019-05-17T17:45:23.562Z,3.93
2019-05-17T17:47:50.995Z,4.00
2019-05-17T17:50:18.614Z,3.60
2019-05-17T17:52:48.608Z,3.33
2019-05-17T17:55:16.299Z,4.50
2019-05-17T17:57:43.332Z,3.43
2019-05-17T18:00:11.867Z,4.07
2019-05-17T18:02:39.023Z,3.60
2019-05-17T18:05:06.765Z,3.53
2019-05-17T18:07:34.317Z,3.57
2019-05-17T18:10:01.772Z,3.53
2019-05-17T18:12:29.423Z,4.37
2019-05-17T18:14:57.171Z,3.60
2019-05-17T18:17:24.170Z,3.57
2019-05-17T18:19:51.686Z,3.50
2019-05-17T18:22:19.089Z,3.70
2019-05-17T18:24:46.492Z,3.97
2019-05-17T18:27:14.020Z,3.23
2019-05-17T18:29:41.628Z,3.53
2019-05-17T18:32:08.865Z,4.10
2019-05-17T18:34:38.223Z,3.73
2019-05-17T18:37:05.714Z,3.57
2019-05-17T18:39:33.032Z,3.80
2019-05-17T18:42:00.658Z,3.40
2019-05-17T18:44:28.288Z,3.27
2019-05-17T18:46:55.613Z,3.67
2019-05-17T18:49:22.864Z,4.00
2019-05-17T18:51:49.936Z,4.47
2019-05-17T18:54:17.307Z,3.83
2019-05-17T18:56:44.420Z,4.20
2019-05-17T18:59:11.387Z,4.00
2019-05-17T19:01:38.727Z,3.33
2019-05-17T19:04:06.029Z,3.60
2019-05-17T19:06:33.942Z,3.40
2019-05-17T19:09:01.156Z,3.63
2019-05-17T19:11:30.548Z,4.03
2019-05-17T19:13:57.683Z,3.70
2019-05-17T19:16:24.832Z,3.50
2019-05-17T19:18:52.738Z,3.63
2019-05-17T19:21:19.909Z,4.03
2019-05-17T19:23:47.192Z,3.70
2019-05-17T19:26:17.571Z,4.20
2019-05-17T19:28:45.098Z,3.73
2019-05-17T19:31:12.531Z,3.77
2019-05-17T19:33:39.691Z,3.87
2019-05-17T19:36:06.661Z,4.10
2019-05-17T19:38:34.030Z,3.67
2019-05-17T19:41:01.466Z,4.40
2019-05-17T19:43:30.006Z,4.00
2019-05-17T19:45:57.319Z,3.97
2019-05-17T19:48:24.752Z,3.47
2019-05-17T19:50:51.777Z,4.50
2019-05-17T19:53:19.388Z,4.63
2019-05-17T19:55:47.757Z,4.30
2019-05-17T19:58:15.177Z,4.60
2019-05-17T20:00:42.073Z,4.37
2019-05-17T20:03:09.363Z,4.00
2019-05-17T20:05:36.571Z,4.43
2019-05-17T20:08:03.825Z,4.90
2019-05-17T20:10:31.328Z,4.93
2019-05-17T20:12:58.746Z,3.83
2019-05-17T20:15:34.130Z,4.17
2019-05-17T20:17:55.093Z,4.17
2019-05-17T20:20:22.250Z,3.80
2019-05-17T20:22:49.517Z,3.90
2019-05-17T20:25:16.762Z,4.10
2019-05-17T20:27:43.989Z,4.50
2019-05-17T20:30:11.318Z,3.77
2019-05-17T20:32:38.953Z,4.80
2019-05-17T20:35:06.729Z,3.83
2019-05-17T20:37:33.700Z,4.37
2019-05-17T20:40:00.905Z,4.33
2019-05-17T20:42:28.384Z,3.30
2019-05-17T20:44:55.646Z,3.77
2019-05-17T20:47:22.954Z,4.20
2019-05-17T20:49:50.427Z,3.83
2019-05-17T20:52:17.520Z,4.00
2019-05-17T20:54:45.649Z,3.30
2019-05-17T20:57:12.652Z,4.53
2019-05-17T20:59:39.756Z,4.50
2019-05-17T21:02:06.802Z,4.03
2019-05-17T21:04:33.731Z,4.20
2019-05-17T21:07:00.672Z,4.57
2019-05-17T21:09:30.919Z,4.43
2019-05-17T21:11:58.469Z,3.73
2019-05-17T21:14:25.972Z,4.53
2019-05-17T21:16:53.246Z,4.40
2019-05-17T21:19:20.254Z,4.03
2019-05-17T21:21:47.431Z,4.60
2019-05-17T21:24:14.580Z,3.00
2019-05-17T21:26:41.618Z,3.30
2019-05-17T21:29:08.855Z,3.40
2019-05-17T21:31:36.453Z,3.27
2019-05-17T21:34:03.760Z,3.03
2019-05-17T21:36:31.032Z,3.70
2019-05-17T21:38:58.037Z,3.37
2019-05-17T21:41:25.182Z,3.33
2019-05-17T21:43:52.758Z,2.93
2019-05-17T21:46:20.271Z,3.13
2019-05-17T21:48:48.464Z,3.43
2019-05-17T21:51:16.212Z,3.70
2019-05-17T21:53:43.629Z,3.10
2019-05-17T21:56:10.840Z,3.30
2019-05-17T21:58:37.735Z,3.53
2019-05-17T22:01:12.399Z,2.90
2019-05-17T22:03:39.555Z,3.80
2019-05-17T22:06:07.322Z,3.07
2019-05-17T22:08:34.281Z,3.70
2019-05-17T22:11:01.574Z,3.30
2019-05-17T22:13:29.057Z,3.57
2019-05-17T22:15:55.927Z,3.00
2019-05-17T22:18:23.096Z,3.03
2019-05-17T22:20:50.308Z,4.13
2019-05-17T22:23:17.659Z,3.60
2019-05-17T22:25:48.239Z,4.13
2019-05-17T22:28:15.730Z,3.53
2019-05-17T22:30:42.863Z,3.60
2019-05-17T22:33:10.370Z,4.40
2019-05-17T22:35:38.236Z,3.50
2019-05-17T22:38:05.341Z,3.67
2019-05-17T22:40:32.493Z,3.63
2019-05-17T22:42:59.989Z,3.57
2019-05-17T22:45:27.614Z,3.70
2019-05-17T22:47:54.731Z,3.60
2019-05-17T22:50:22.214Z,3.57
2019-05-17T22:52:49.646Z,4.27
2019-05-17T22:55:20.972Z,3.40
2019-05-17T22:57:48.086Z,3.20
2019-05-17T23:00:15.589Z,4.00
2019-05-17T23:02:42.680Z,3.67
2019-05-17T23:05:09.820Z,3.20
2019-05-17T23:07:37.013Z,3.40
2019-05-17T23:10:04.553Z,4.10
2019-05-17T23:12:32.190Z,4.00
2019-05-17T23:14:59.478Z,3.70
2019-05-17T23:17:26.685Z,3.50
2019-05-17T23:19:54.030Z,3.50
2019-05-17T23:22:21.231Z,3.47
2019-05-17T23:24:49.080Z,3.47
2019-05-17T23:27:16.256Z,4.10
2019-05-17T23:29:43.755Z,3.30
2019-05-17T23:32:10.801Z,3.17
2019-05-17T23:34:37.837Z,3.37
2019-05-17T23:37:04.999Z,3.90
2019-05-17T23:39:32.197Z,3.50
2019-05-17T23:41:59.674Z,3.60
2019-05-17T23:44:26.963Z,3.60
2019-05-17T23:47:06.171Z,3.17
2019-05-17T23:49:27.179Z,3.67
2019-05-17T23:51:54.252Z,3.43
2019-05-17T23:54:21.455Z,3.87
2019-05-17T23:56:48.283Z,3.87
2019-05-17T23:59:15.202Z,3.80
